createdAt,value
2023-02-09T00:01:49.533Z,99258.50
2023-02-09T00:04:17.868Z,99260.56
2023-02-09T00:06:46.154Z,99264.13
2023-02-09T00:09:14.658Z,99264.88
2023-02-09T00:12:01.493Z,99264.88
2023-02-09T00:14:30.087Z,99279.91
2023-02-09T00:16:58.384Z,99281.69
2023-02-09T00:19:26.668Z,99281.16
2023-02-09T00:21:55.503Z,99284.97
2023-02-09T00:24:23.926Z,99289.56
2023-02-09T00:26:52.310Z,99282.16
2023-02-09T00:29:23.446Z,99290.34
2023-02-09T00:31:52.712Z,99302.03
2023-02-09T00:34:21.115Z,99294.66
2023-02-09T00:36:49.555Z,99303.03
2023-02-09T00:39:17.886Z,99302.78
2023-02-09T00:42:04.348Z,99311.94
2023-02-09T00:44:33.063Z,99317.03
2023-02-09T00:47:02.430Z,99320.38
2023-02-09T00:49:31.295Z,99328.25
2023-02-09T00:51:59.695Z,99340.72
2023-02-09T00:54:28.325Z,99335.09
2023-02-09T00:56:56.693Z,99337.91
2023-02-09T00:59:25.043Z,99347.06
2023-02-09T01:01:53.390Z,99342.19
2023-02-09T01:04:21.733Z,99359.00
2023-02-09T01:06:50.125Z,99352.59
2023-02-09T01:09:18.442Z,99351.84
2023-02-09T01:11:46.774Z,99360.22
2023-02-09T01:14:15.081Z,99367.84
2023-02-09T01:16:43.561Z,99371.41
2023-02-09T01:19:14.666Z,99374.19
2023-02-09T01:21:43.605Z,99382.09
2023-02-09T01:24:15.949Z,99374.41
2023-02-09T01:26:44.565Z,99377.19
2023-02-09T01:29:21.100Z,99389.91
2023-02-09T01:31:50.152Z,99389.91
2023-02-09T01:34:20.301Z,99391.91
2023-02-09T01:36:49.337Z,99400.28
2023-02-09T01:39:17.780Z,99402.53
2023-02-09T01:41:46.514Z,99406.06
2023-02-09T01:44:17.877Z,99401.25
2023-02-09T01:46:46.225Z,99408.34
2023-02-09T01:49:18.780Z,99409.81
2023-02-09T01:52:21.830Z,99406.44
2023-02-09T01:54:55.881Z,99414.56
2023-02-09T01:57:30.620Z,99416.81
2023-02-09T02:00:09.653Z,99426.72
2023-02-09T02:02:39.569Z,99423.38
2023-02-09T02:05:09.187Z,99424.84
2023-02-09T02:07:48.248Z,99420.94
2023-02-09T02:10:16.734Z,99423.19
2023-02-09T02:12:45.342Z,99432.59
2023-02-09T02:15:13.883Z,99436.34
2023-02-09T02:17:42.144Z,99434.47
2023-02-09T02:20:25.365Z,99438.72
2023-02-09T02:22:56.912Z,99444.56
2023-02-09T02:26:02.446Z,99454.94
2023-02-09T02:28:50.855Z,99446.91
2023-02-09T02:31:43.317Z,99440.19
2023-02-09T02:34:39.743Z,99440.34
2023-02-09T02:37:11.235Z,99437.16
2023-02-09T02:39:50.954Z,99431.69
2023-02-09T02:42:50.657Z,99439.00
2023-02-09T02:45:36.948Z,99450.09
2023-02-09T02:48:20.220Z,99452.81
2023-02-09T02:50:59.364Z,99448.09
2023-02-09T02:53:32.639Z,99440.53
2023-02-09T02:56:26.394Z,99440.69
2023-02-09T02:59:00.912Z,99444.41
2023-02-09T03:01:35.269Z,99436.09
2023-02-09T03:04:06.179Z,99443.94
2023-02-09T03:06:36.442Z,99443.56
2023-02-09T03:09:06.831Z,99436.22
2023-02-09T03:11:45.694Z,99437.63
2023-02-09T03:14:34.873Z,99444.41
2023-02-09T03:17:28.828Z,99440.38
2023-02-09T03:20:18.253Z,99444.09
2023-02-09T03:22:58.502Z,99441.63
2023-02-09T03:25:35.152Z,99442.50
2023-02-09T03:28:34.072Z,99433.06
2023-02-09T03:31:04.805Z,99437.31
2023-02-09T03:33:36.987Z,99431.22
2023-02-09T03:36:11.203Z,99421.53
2023-02-09T03:38:39.584Z,99424.47
2023-02-09T03:41:08.333Z,99414.03
2023-02-09T03:43:54.895Z,99410.56
2023-02-09T03:46:23.268Z,99414.25
2023-02-09T03:48:51.745Z,99410.22
2023-02-09T03:51:20.198Z,99401.59
2023-02-09T03:53:48.569Z,99398.84
2023-02-09T03:56:16.867Z,99396.88
2023-02-09T03:58:45.188Z,99391.09
2023-02-09T04:01:13.597Z,99390.19
2023-02-09T04:03:41.974Z,99386.69
2023-02-09T04:06:13.752Z,99383.72
2023-02-09T04:08:44.051Z,99379.47
2023-02-09T04:11:12.440Z,99369.31
2023-02-09T04:13:40.727Z,99373.50
2023-02-09T04:16:09.192Z,99378.28
2023-02-09T04:18:37.507Z,99365.28
2023-02-09T04:21:06.072Z,99355.91
2023-02-09T04:23:34.378Z,99350.84
2023-02-09T04:26:02.718Z,99358.63
2023-02-09T04:28:31.273Z,99341.53
2023-02-09T04:30:59.800Z,99339.88
2023-02-09T04:33:28.201Z,99337.44
2023-02-09T04:35:56.553Z,99325.75
2023-02-09T04:38:25.282Z,99324.09
2023-02-09T04:40:56.071Z,99323.16
2023-02-09T04:43:25.274Z,99313.94
2023-02-09T04:45:53.844Z,99305.31
2023-02-09T04:48:26.898Z,99306.66
2023-02-09T04:50:55.376Z,99304.41
2023-02-09T04:53:24.025Z,99295.75
2023-02-09T04:55:53.724Z,99297.88
2023-02-09T04:58:41.191Z,99291.28
2023-02-09T05:01:13.238Z,99285.63
2023-02-09T05:03:43.386Z,99278.44
2023-02-09T05:06:12.369Z,99269.97
2023-02-09T05:08:40.724Z,99259.78
2023-02-09T05:11:09.088Z,99259.03
2023-02-09T05:13:37.753Z,99253.91
2023-02-09T05:16:11.073Z,99258.09
2023-02-09T05:18:39.455Z,99250.94
2023-02-09T05:21:07.949Z,99247.72
2023-02-09T05:23:36.279Z,99243.38
2023-02-09T05:26:04.684Z,99233.16
2023-02-09T05:28:33.018Z,99229.38
2023-02-09T05:31:01.406Z,99234.09
2023-02-09T05:33:31.461Z,99226.38
2023-02-09T05:36:00.437Z,99214.47
2023-02-09T05:38:28.995Z,99211.06
2023-02-09T05:41:01.472Z,99213.69
2023-02-09T05:43:29.806Z,99207.06
2023-02-09T05:45:58.938Z,99203.09
2023-02-09T05:48:28.154Z,99205.56
2023-02-09T05:50:56.500Z,99197.44
2023-02-09T05:53:24.871Z,99191.56
2023-02-09T05:55:53.175Z,99177.34
2023-02-09T05:58:21.487Z,99182.06
2023-02-09T06:00:49.805Z,99179.25
2023-02-09T06:03:18.237Z,99174.47
2023-02-09T06:05:47.381Z,99175.41
2023-02-09T06:08:15.754Z,99169.72
2023-02-09T06:10:44.458Z,99160.25
2023-02-09T06:13:12.957Z,99157.19
2023-02-09T06:15:41.344Z,99144.09
2023-02-09T06:18:10.065Z,99146.94
2023-02-09T06:20:38.732Z,99143.75
2023-02-09T06:23:07.067Z,99143.38
2023-02-09T06:25:35.348Z,99134.13
2023-02-09T06:28:03.751Z,99126.13
2023-02-09T06:30:32.947Z,99124.41
2023-02-09T06:33:01.312Z,99117.97
2023-02-09T06:35:30.077Z,99115.13
2023-02-09T06:38:00.121Z,99110.22
2023-02-09T06:40:28.586Z,99110.63
2023-02-09T06:42:56.923Z,99103.25
2023-02-09T06:45:25.262Z,99102.09
2023-02-09T06:47:53.721Z,99095.09
2023-02-09T06:50:22.104Z,99087.72
2023-02-09T06:52:50.776Z,99091.53
2023-02-09T06:55:19.200Z,99088.69
2023-02-09T06:57:49.245Z,99073.41
2023-02-09T07:00:23.632Z,99065.69
2023-02-09T07:02:53.094Z,99070.78
2023-02-09T07:05:22.791Z,99067.19
2023-02-09T07:07:52.469Z,99061.69
2023-02-09T07:10:20.939Z,99051.69
2023-02-09T07:12:49.305Z,99044.66
2023-02-09T07:15:17.655Z,99034.06
2023-02-09T07:17:45.972Z,99033.66
2023-02-09T07:20:14.693Z,99038.19
2023-02-09T07:22:43.115Z,99022.84
2023-02-09T07:25:11.513Z,99014.50
2023-02-09T07:27:43.555Z,99008.25
2023-02-09T07:30:14.176Z,99009.56
2023-02-09T07:32:43.181Z,99000.31
2023-02-09T07:35:11.524Z,98999.38
2023-02-09T07:37:39.820Z,98996.72
2023-02-09T07:40:08.664Z,98997.81
2023-02-09T07:42:37.187Z,98987.97
2023-02-09T07:45:05.845Z,98988.13
2023-02-09T07:47:36.648Z,98976.41
2023-02-09T07:50:05.144Z,98983.75
2023-02-09T07:52:33.678Z,98987.53
2023-02-09T07:55:02.220Z,98975.25
2023-02-09T07:57:31.082Z,98969.56
2023-02-09T07:59:59.447Z,98968.41
2023-02-09T08:02:40.193Z,98966.16
2023-02-09T08:05:21.702Z,98963.31
2023-02-09T08:07:56.086Z,98964.06
2023-02-09T08:10:25.399Z,98962.72
2023-02-09T08:13:06.139Z,98959.47
2023-02-09T08:15:44.437Z,98962.47
2023-02-09T08:18:19.192Z,98961.16
2023-02-09T08:20:49.487Z,98959.81
2023-02-09T08:23:24.731Z,98956.38
2023-02-09T08:25:53.345Z,98962.81
2023-02-09T08:28:29.249Z,98961.16
2023-02-09T08:31:03.575Z,98961.16
2023-02-09T08:33:32.061Z,98956.06
2023-02-09T08:36:00.716Z,98958.72
2023-02-09T08:38:29.027Z,98952.53
2023-02-09T08:40:57.386Z,98952.75
2023-02-09T08:43:25.740Z,98955.63
2023-02-09T08:45:54.153Z,98955.13
2023-02-09T08:48:22.559Z,98951.94
2023-02-09T08:50:50.874Z,98942.31
2023-02-09T08:53:19.178Z,98952.19
2023-02-09T08:55:47.895Z,98948.38
2023-02-09T08:58:16.602Z,98945.19
2023-02-09T09:00:44.980Z,98949.53
2023-02-09T09:03:13.458Z,98947.84
2023-02-09T09:05:41.737Z,98941.59
2023-02-09T09:08:12.904Z,98940.69
2023-02-09T09:10:41.256Z,98942.56
2023-02-09T09:13:09.599Z,98945.97
2023-02-09T09:15:41.853Z,98944.13
2023-02-09T09:18:11.156Z,98939.78
2023-02-09T09:20:43.131Z,98943.03
2023-02-09T09:23:12.339Z,98947.59
2023-02-09T09:25:41.704Z,98941.38
2023-02-09T09:28:11.032Z,98950.84
2023-02-09T09:30:39.432Z,98942.75
2023-02-09T09:33:07.825Z,98942.97
2023-02-09T09:35:36.134Z,98953.94
2023-02-09T09:38:04.788Z,98953.59
2023-02-09T09:40:36.738Z,98961.72
2023-02-09T09:43:10.279Z,98951.53
2023-02-09T09:45:40.834Z,98952.06
2023-02-09T09:48:35.526Z,98954.72
2023-02-09T09:51:36.839Z,98949.47
2023-02-09T09:54:09.603Z,98952.13
2023-02-09T09:56:37.997Z,98962.34
2023-02-09T09:59:06.738Z,98949.13
2023-02-09T10:01:35.249Z,98963.66
2023-02-09T10:04:12.974Z,98960.28
2023-02-09T10:06:46.569Z,98957.09
2023-02-09T10:09:27.659Z,98952.38
2023-02-09T10:12:08.322Z,98959.19
2023-02-09T10:14:36.622Z,98956.56
2023-02-09T10:17:05.000Z,98959.00
2023-02-09T10:19:33.779Z,98960.69
2023-02-09T10:22:02.155Z,98959.59
2023-02-09T10:24:33.587Z,98968.47
2023-02-09T10:27:29.914Z,98975.09
2023-02-09T10:30:19.636Z,98970.94
2023-02-09T10:32:48.932Z,98976.22
2023-02-09T10:35:43.219Z,98976.41
2023-02-09T10:38:19.411Z,98974.53
2023-02-09T10:40:48.613Z,98976.97
2023-02-09T10:43:30.998Z,98981.50
2023-02-09T10:46:11.385Z,98982.44
2023-02-09T10:48:45.535Z,98991.88
2023-02-09T10:51:29.989Z,98995.59
2023-02-09T10:54:20.575Z,98999.19
2023-02-09T10:56:51.170Z,98991.44
2023-02-09T10:59:25.020Z,98992.94
2023-02-09T11:01:59.463Z,98986.69
2023-02-09T11:04:42.040Z,98991.78
2023-02-09T11:07:14.346Z,98991.22
2023-02-09T11:09:49.681Z,98990.06
2023-02-09T11:12:21.339Z,99001.53
2023-02-09T11:14:49.835Z,98996.78
2023-02-09T11:17:26.970Z,99002.59
2023-02-09T11:19:55.262Z,99001.06
2023-02-09T11:22:47.870Z,99011.75
2023-02-09T11:25:34.722Z,99016.06
2023-02-09T11:28:24.515Z,99023.00
2023-02-09T11:31:11.233Z,99019.94
2023-02-09T11:33:52.969Z,99023.47
2023-02-09T11:36:33.489Z,99036.00
2023-02-09T11:39:25.279Z,99034.47
2023-02-09T11:42:22.871Z,99033.63
2023-02-09T11:44:59.228Z,99043.56
2023-02-09T11:47:52.781Z,99038.63
2023-02-09T11:50:45.364Z,99045.72
2023-02-09T11:53:26.713Z,99044.34
2023-02-09T11:56:00.671Z,99046.00
2023-02-09T11:58:42.086Z,99052.50
2023-02-09T12:01:25.272Z,99045.69
2023-02-09T12:04:20.252Z,99052.25
2023-02-09T12:10:24.140Z,99054.00
2023-02-09T12:13:00.041Z,99061.84
2023-02-09T12:15:32.301Z,99059.91
2023-02-09T12:21:01.200Z,99074.47
2023-02-09T12:23:41.246Z,99072.00
2023-02-09T12:26:18.745Z,99073.84
2023-02-09T12:28:48.658Z,99078.31
2023-02-09T12:31:28.386Z,99081.47
2023-02-09T12:33:59.965Z,99076.69
2023-02-09T12:36:37.575Z,99082.66
2023-02-09T12:39:35.159Z,99084.28
2023-02-09T12:42:06.208Z,99087.44
2023-02-09T12:44:34.492Z,99096.22
2023-02-09T12:47:02.825Z,99093.75
2023-02-09T12:49:32.131Z,99098.41
2023-02-09T12:52:03.638Z,99095.94
2023-02-09T12:54:45.836Z,99110.56
2023-02-09T12:57:17.257Z,99110.13
2023-02-09T12:59:51.787Z,99118.94
2023-02-09T13:02:45.752Z,99120.75
2023-02-09T13:05:24.546Z,99123.34
2023-02-09T13:08:19.670Z,99125.94
2023-02-09T13:11:08.431Z,99133.22
2023-02-09T13:13:55.115Z,99138.63
2023-02-09T13:16:26.568Z,99137.66
2023-02-09T13:19:18.796Z,99139.50
2023-02-09T13:22:00.607Z,99152.63
2023-02-09T13:24:54.007Z,99153.16
2023-02-09T13:27:25.248Z,99154.25
2023-02-09T13:29:59.154Z,99153.25
2023-02-09T13:32:43.491Z,99155.59
2023-02-09T13:35:30.612Z,99163.59
2023-02-09T13:38:16.416Z,99163.94
2023-02-09T13:40:52.317Z,99176.28
2023-02-09T13:43:30.082Z,99170.19
2023-02-09T13:46:00.280Z,99176.91
2023-02-09T13:48:32.339Z,99179.28
2023-02-09T13:51:16.115Z,99177.78
2023-02-09T13:54:00.956Z,99183.91
2023-02-09T13:56:30.907Z,99192.13
2023-02-09T13:59:00.270Z,99189.66
2023-02-09T14:01:36.933Z,99191.47
2023-02-09T14:04:13.416Z,99194.59
2023-02-09T14:06:49.158Z,99192.09
2023-02-09T14:09:22.954Z,99201.09
2023-02-09T14:12:01.139Z,99202.38
2023-02-09T14:14:58.608Z,99194.47
2023-02-09T14:17:30.008Z,99204.97
2023-02-09T14:20:00.545Z,99200.66
2023-02-09T14:22:35.123Z,99203.47
2023-02-09T14:25:18.973Z,99207.34
2023-02-09T14:27:49.470Z,99206.59
2023-02-09T14:30:22.326Z,99197.38
2023-02-09T14:32:56.421Z,99199.94
2023-02-09T14:35:31.475Z,99199.94
2023-02-09T14:38:02.765Z,99201.78
2023-02-09T14:40:38.151Z,99202.53
2023-02-09T14:43:12.675Z,99209.22
2023-02-09T14:45:47.604Z,99220.47
2023-02-09T14:48:26.875Z,99216.69
2023-02-09T14:50:57.485Z,99217.22
2023-02-09T14:53:29.437Z,99209.31
2023-02-09T14:55:58.804Z,99212.44
2023-02-09T14:58:32.671Z,99217.06
2023-02-09T15:01:03.682Z,99222.47
2023-02-09T15:03:32.067Z,99221.50
2023-02-09T15:06:03.904Z,99218.44
2023-02-09T15:08:36.573Z,99232.28
2023-02-09T15:11:28.589Z,99238.97
2023-02-09T15:14:08.891Z,99240.78
2023-02-09T15:16:37.229Z,99244.66
2023-02-09T15:19:11.464Z,99232.94
2023-02-09T15:21:39.752Z,99240.41
2023-02-09T15:24:08.143Z,99240.72
2023-02-09T15:26:38.987Z,99241.78
2023-02-09T15:29:16.202Z,99243.59
2023-02-09T15:31:44.772Z,99248.75
2023-02-09T15:34:15.629Z,99248.81
2023-02-09T15:36:45.825Z,99251.16
2023-02-09T15:39:26.095Z,99253.50
2023-02-09T15:42:12.720Z,99255.84
2023-02-09T15:44:59.242Z,99252.56
2023-02-09T15:47:46.219Z,99248.53
2023-02-09T15:50:14.510Z,99249.56
2023-02-09T15:52:43.011Z,99247.28
2023-02-09T15:55:20.298Z,99254.19
2023-02-09T15:57:54.540Z,99256.22
2023-02-09T16:00:28.448Z,99259.03
2023-02-09T16:02:59.863Z,99253.94
2023-02-09T16:05:31.126Z,99256.53
2023-02-09T16:08:01.020Z,99254.25
2023-02-09T16:10:31.356Z,99253.25
2023-02-09T16:12:59.743Z,99246.13
2023-02-09T16:15:28.349Z,99243.06
2023-02-09T16:17:56.740Z,99240.03
2023-02-09T16:20:26.254Z,99241.31
2023-02-09T16:22:58.512Z,99243.91
2023-02-09T16:25:39.385Z,99245.94
2023-02-09T16:28:07.985Z,99243.66
2023-02-09T16:30:38.716Z,99245.72
2023-02-09T16:33:06.994Z,99237.28
2023-02-09T16:35:36.214Z,99244.19
2023-02-09T16:38:04.519Z,99241.91
2023-02-09T16:40:34.504Z,99228.38
2023-02-09T16:43:03.449Z,99221.22
2023-02-09T16:45:36.279Z,99223.78
2023-02-09T16:48:05.013Z,99218.69
2023-02-09T16:50:36.695Z,99224.09
2023-02-09T16:53:18.285Z,99214.13
2023-02-09T16:58:28.635Z,99217.00
2023-02-09T17:01:01.367Z,99213.44
2023-02-09T17:03:42.832Z,99217.28
2023-02-09T17:06:31.153Z,99205.81
2023-02-09T17:09:03.520Z,99221.69
2023-02-09T17:11:31.860Z,99223.72
2023-02-09T17:14:00.271Z,99219.91
2023-02-09T17:16:37.779Z,99215.34
2023-02-09T17:19:14.034Z,99216.88
2023-02-09T17:21:42.894Z,99215.88
2023-02-09T17:24:21.138Z,99212.59
2023-02-09T17:26:49.509Z,99216.47
2023-02-09T17:29:21.045Z,99218.28
2023-02-09T17:31:53.594Z,99207.34
2023-02-09T17:34:29.040Z,99205.06
2023-02-09T17:36:58.633Z,99204.81
2023-02-09T17:39:28.153Z,99200.25
2023-02-09T17:42:00.915Z,99196.41
2023-02-09T17:44:45.167Z,99196.94
2023-02-09T17:47:19.192Z,99188.28
2023-02-09T17:49:50.546Z,99187.28
2023-02-09T17:52:27.115Z,99179.38
2023-02-09T17:54:55.800Z,99175.06
2023-02-09T17:57:24.205Z,99177.63
2023-02-09T17:59:52.499Z,99175.34
2023-02-09T18:02:21.514Z,99185.81
2023-02-09T18:04:50.606Z,99175.63
2023-02-09T18:07:23.673Z,99171.06
2023-02-09T18:09:55.546Z,99173.13
2023-02-09T18:12:30.061Z,99177.72
2023-02-09T18:15:00.066Z,99177.50
2023-02-09T18:17:28.399Z,99169.06
2023-02-09T18:19:57.751Z,99162.69
2023-02-09T18:22:27.568Z,99167.56
2023-02-09T18:25:00.960Z,99165.22
2023-02-09T18:27:29.333Z,99165.75
2023-02-09T18:29:57.626Z,99161.19
2023-02-09T18:32:26.562Z,99156.09
2023-02-09T18:34:54.880Z,99152.03
2023-02-09T18:37:23.224Z,99157.66
2023-02-09T18:39:51.557Z,99164.31
2023-02-09T18:42:19.876Z,99165.59
2023-02-09T18:44:48.225Z,99167.38
2023-02-09T18:47:16.619Z,99165.88
2023-02-09T18:49:45.183Z,99159.50
2023-02-09T18:52:21.761Z,99157.97
2023-02-09T18:54:50.117Z,99151.38
2023-02-09T18:57:18.519Z,99152.66
2023-02-09T18:59:47.935Z,99152.41
2023-02-09T19:02:16.837Z,99150.09
2023-02-09T19:04:45.522Z,99147.81
2023-02-09T19:07:15.306Z,99147.56
2023-02-09T19:09:46.799Z,99148.09
2023-02-09T19:12:15.287Z,99140.19
2023-02-09T19:14:46.798Z,99142.25
2023-02-09T19:17:18.329Z,99141.47
2023-02-09T19:19:46.876Z,99135.63
2023-02-09T19:22:17.687Z,99132.59
2023-02-09T19:24:46.958Z,99137.44
2023-02-09T19:27:17.758Z,99128.03
2023-02-09T19:29:47.400Z,99129.53
2023-02-09T19:32:16.433Z,99129.53
2023-02-09T19:34:46.906Z,99125.97
2023-02-09T19:37:16.576Z,99125.75
2023-02-09T19:39:53.543Z,99132.63
2023-02-09T19:42:23.362Z,99123.47
2023-02-09T19:44:51.699Z,99122.69
2023-02-09T19:47:26.555Z,99119.13
2023-02-09T19:49:56.746Z,99124.75
2023-02-09T19:52:26.769Z,99123.22
2023-02-09T19:54:57.566Z,99107.69
2023-02-09T19:57:26.201Z,99112.28
2023-02-09T19:59:54.860Z,99115.09
2023-02-09T20:02:23.174Z,99116.38
2023-02-09T20:04:51.550Z,99119.19
2023-02-09T20:07:19.925Z,99114.84
2023-02-09T20:09:48.334Z,99108.47
2023-02-09T20:12:16.714Z,99113.31
2023-02-09T20:14:45.010Z,99123.78
2023-02-09T20:17:13.313Z,99118.94
2023-02-09T20:19:41.642Z,99118.94
2023-02-09T20:22:10.011Z,99119.44
2023-02-09T20:24:38.343Z,99117.38
2023-02-09T20:27:08.607Z,99122.75
2023-02-09T20:29:36.969Z,99123.50
2023-02-09T20:32:05.673Z,99129.13
2023-02-09T20:34:34.049Z,99131.91
2023-02-09T20:37:02.382Z,99125.56
2023-02-09T20:39:30.686Z,99121.47
2023-02-09T20:42:18.976Z,99125.56
2023-02-09T20:45:05.629Z,99122.75
2023-02-09T20:47:34.377Z,99123.28
2023-02-09T20:50:02.741Z,99128.13
2023-02-09T20:52:31.829Z,99128.13
2023-02-09T20:55:00.188Z,99122.50
2023-02-09T20:57:32.429Z,99121.75
2023-02-09T21:00:02.099Z,99117.41
2023-02-09T21:02:30.450Z,99118.19
2023-02-09T21:04:59.093Z,99123.03
2023-02-09T21:07:27.505Z,99115.91
2023-02-09T21:09:56.792Z,99122.25
2023-02-09T21:12:25.226Z,99117.94
2023-02-09T21:14:54.399Z,99115.66
2023-02-09T21:17:22.835Z,99123.31
2023-02-09T21:19:51.407Z,99113.91
2023-02-09T21:22:19.750Z,99113.13
2023-02-09T21:24:48.085Z,99120.53
2023-02-09T21:27:16.478Z,99119.78
2023-02-09T21:29:44.845Z,99119.53
2023-02-09T21:32:13.140Z,99111.66
2023-02-09T21:34:41.459Z,99125.41
2023-02-09T21:37:13.695Z,99122.63
2023-02-09T21:39:42.248Z,99123.88
2023-02-09T21:42:31.631Z,99121.59
2023-02-09T21:45:00.828Z,99124.16
2023-02-09T21:47:31.780Z,99122.09
2023-02-09T21:50:00.610Z,99127.97
2023-02-09T21:52:30.878Z,99131.28
2023-02-09T21:54:59.369Z,99139.19
2023-02-09T21:57:28.019Z,99147.38
2023-02-09T21:59:56.725Z,99147.13
2023-02-09T22:02:25.094Z,99160.38
2023-02-09T22:04:53.626Z,99149.16
2023-02-09T22:07:21.982Z,99158.84
2023-02-09T22:09:50.340Z,99155.28
2023-02-09T22:12:18.637Z,99162.94
2023-02-09T22:14:47.104Z,99164.22
2023-02-09T22:17:15.434Z,99172.38
2023-02-09T22:19:43.763Z,99170.09
2023-02-09T22:22:12.710Z,99174.16
2023-02-09T22:24:41.106Z,99180.28
2023-02-09T22:27:09.496Z,99190.47
2023-02-09T22:29:38.314Z,99193.81
2023-02-09T22:32:06.756Z,99204.25
2023-02-09T22:34:35.191Z,99207.56
2023-02-09T22:37:03.496Z,99208.31
2023-02-09T22:39:31.995Z,99208.31
2023-02-09T22:42:01.735Z,99218.25
2023-02-09T22:44:31.334Z,99213.16
2023-02-09T22:46:59.678Z,99219.25
2023-02-09T22:49:28.061Z,99221.28
2023-02-09T22:51:56.387Z,99233.00
2023-02-09T22:54:24.758Z,99225.38
2023-02-09T22:56:53.136Z,99226.66
2023-02-09T22:59:21.609Z,99225.13
2023-02-09T23:01:49.983Z,99233.53
2023-02-09T23:04:18.393Z,99233.28
2023-02-09T23:06:46.879Z,99238.13
2023-02-09T23:09:16.541Z,99245.00
2023-02-09T23:11:45.425Z,99250.59
2023-02-09T23:14:14.575Z,99250.59
2023-02-09T23:16:44.973Z,99258.25
2023-02-09T23:19:19.538Z,99263.06
2023-02-09T23:21:51.527Z,99257.47
2023-02-09T23:24:23.229Z,99260.28
2023-02-09T23:26:51.879Z,99268.69
2023-02-09T23:29:20.621Z,99269.44
2023-02-09T23:31:49.388Z,99269.44
2023-02-09T23:34:21.205Z,99280.66
2023-02-09T23:36:50.009Z,99281.94
2023-02-09T23:39:23.626Z,99291.59
2023-02-09T23:41:52.073Z,99288.56
2023-02-09T23:44:21.005Z,99296.97
2023-02-09T23:46:49.465Z,99301.78
2023-02-09T23:49:17.798Z,99301.03
2023-02-09T23:51:47.640Z,99305.88
2023-02-09T23:54:16.014Z,99304.59
2023-02-09T23:56:46.483Z,99310.97
2023-02-09T23:59:16.631Z,99315.28
